Accueil
METAR-TAF:

METAR-TAF

Aéroports :

Cranfield, Angleterre

latitude: 52-04N, longitude: 000-37W, altitude: 111 m

Observation

Le bulletin a été fait il y a 8 heures et 39 minutes, à 16:50 UTC
Vent 7 kt de sud-ouest, variant entre sud et ouest
Température 27°C
Humidité 34%
Pression 1011 hPa
Visibilité 10 km ou plus
pas de nuages en-dessous de 1500 mètres et pas de cumulonimbus.

METAR: EGTC 161650Z 22007KT 190V270 CAVOK 27/10 Q1011

Heure: 02:29 (01:29 UTC)

Prévision

Le bulletin a été fait il y a 11 heures et 28 minutes, à 14:01 UTC
Prévision valable du 16 à 15 UTC au 16 à 18 UTC
Vent 5 kt de ouest/sud-ouest
Visibilité 10 km ou plus
Quelques nuages à une hauteur de 4500 ft

TAF: EGTC 161401Z 1615/1618 25005KT 9999 FEW045

Observations et prévisions météorologiques de plus de 4000 aéroports (messages METAR et TAF).

Les stations disponibles sont représentées par des disques jaunes et rouges sur la carte.

Passer la souris dessus pour voir le nom de la station.

Cliquer dessus pour voir les observations et prévisions météorologiques.

Pour changer de carte: cliquez sur les boutons verts avec une croix noire pour zoomer, sur le bouton vert avec un tiret pour effectuer un zoom arrière, ou sur les flèches vertes pour les cartes adjacentes.


METAR-TAF: